createdAt,value
2023-05-21T00:00:49.838Z,90.57
2023-05-21T00:01:49.875Z,90.51
2023-05-21T00:02:49.852Z,91.02
2023-05-21T00:03:50.042Z,91.63
2023-05-21T00:04:49.805Z,91.47
2023-05-21T00:05:49.802Z,92.08
2023-05-21T00:06:49.769Z,91.43
2023-05-21T00:07:49.758Z,90.92
2023-05-21T00:08:49.745Z,92.24
2023-05-21T00:09:49.751Z,92.35
2023-05-21T00:10:49.730Z,93.37
2023-05-21T00:11:49.719Z,94.14
2023-05-21T00:12:49.745Z,94.08
2023-05-21T00:13:49.702Z,93.67
2023-05-21T00:14:49.714Z,92.61
2023-05-21T00:15:49.677Z,93.32
2023-05-21T00:16:49.782Z,95.47
2023-05-21T00:17:49.698Z,93.43
2023-05-21T00:18:49.671Z,92.81
2023-05-21T00:19:50.796Z,93.02
2023-05-21T00:20:50.750Z,93.52
2023-05-21T00:21:50.741Z,93.22
2023-05-21T00:22:50.744Z,94.45
2023-05-21T00:23:50.726Z,96.95
2023-05-21T00:24:50.756Z,97.00
2023-05-21T00:25:50.695Z,97.16
2023-05-21T00:26:50.693Z,96.55
2023-05-21T00:27:50.679Z,96.41
2023-05-21T00:28:50.684Z,95.90
2023-05-21T00:29:50.664Z,95.24
2023-05-21T00:30:50.657Z,94.23
2023-05-21T00:31:50.666Z,94.59
2023-05-21T00:32:50.676Z,94.18
2023-05-21T00:33:50.627Z,93.63
2023-05-21T00:34:50.615Z,92.91
2023-05-21T00:35:50.610Z,92.71
2023-05-21T00:36:50.601Z,92.91
2023-05-21T00:37:50.590Z,92.67
2023-05-21T00:38:50.577Z,92.16
2023-05-21T00:39:50.581Z,92.26
2023-05-21T00:40:50.555Z,92.12
2023-05-21T00:41:50.542Z,91.75
2023-05-21T00:42:50.560Z,91.00
2023-05-21T00:43:50.521Z,91.41
2023-05-21T00:44:50.512Z,90.80
2023-05-21T00:45:50.526Z,90.29
2023-05-21T00:46:50.493Z,90.80
2023-05-21T00:47:50.519Z,90.80
2023-05-21T00:48:50.469Z,90.66
2023-05-21T00:49:50.471Z,90.55
2023-05-21T00:50:51.452Z,89.78
2023-05-21T00:51:50.449Z,89.64
2023-05-21T00:52:50.446Z,89.74
2023-05-21T00:53:50.422Z,89.84
2023-05-21T00:54:50.411Z,89.68
2023-05-21T00:55:50.418Z,90.05
2023-05-21T00:56:50.397Z,90.49
2023-05-21T00:57:50.394Z,90.19
2023-05-21T00:58:50.366Z,90.14
2023-05-21T00:59:50.370Z,90.14
2023-05-21T01:00:50.451Z,89.74
2023-05-21T01:01:50.451Z,89.94
2023-05-21T01:02:50.416Z,90.14
2023-05-21T01:03:50.324Z,89.64
2023-05-21T01:04:50.331Z,89.13
2023-05-21T01:05:50.297Z,90.05
2023-05-21T01:06:50.307Z,88.87
2023-05-21T01:07:50.285Z,87.12
2023-05-21T01:08:50.276Z,88.04
2023-05-21T01:09:50.261Z,87.63
2023-05-21T01:10:50.258Z,88.59
2023-05-21T01:11:50.262Z,89.70
2023-05-21T01:12:50.240Z,90.42
2023-05-21T01:13:50.233Z,90.52
2023-05-21T01:14:50.216Z,91.38
2023-05-21T01:15:50.218Z,90.86
2023-05-21T01:16:50.267Z,90.66
2023-05-21T01:17:50.210Z,90.60
2023-05-21T01:18:50.273Z,91.22
2023-05-21T01:19:50.244Z,90.60
2023-05-21T01:20:50.199Z,90.95
2023-05-21T01:21:50.149Z,91.05
2023-05-21T01:22:50.142Z,92.33
2023-05-21T01:23:50.132Z,92.58
2023-05-21T01:24:50.119Z,92.58
2023-05-21T01:25:50.116Z,92.68
2023-05-21T01:26:50.102Z,92.79
2023-05-21T01:27:50.095Z,92.48
2023-05-21T01:28:50.079Z,93.09
2023-05-21T01:29:50.089Z,93.90
2023-05-21T01:30:50.074Z,94.01
2023-05-21T01:31:50.063Z,94.21
2023-05-21T01:32:50.144Z,93.50
2023-05-21T01:33:50.087Z,94.21
2023-05-21T01:34:50.040Z,94.31
2023-05-21T01:35:50.014Z,94.52
2023-05-21T01:36:50.001Z,93.60
2023-05-21T01:37:50.003Z,93.80
2023-05-21T01:38:49.994Z,94.11
2023-05-21T01:39:49.996Z,94.01
2023-05-21T01:40:49.974Z,93.09
2023-05-21T01:41:49.959Z,92.68
2023-05-21T01:42:49.958Z,93.40
2023-05-21T01:43:49.955Z,93.74
2023-05-21T01:44:49.939Z,93.85
2023-05-21T01:45:49.924Z,93.24
2023-05-21T01:46:50.046Z,93.64
2023-05-21T01:47:49.954Z,93.24
2023-05-21T01:48:49.900Z,93.74
2023-05-21T01:49:49.889Z,93.74
2023-05-21T01:50:49.885Z,94.46
2023-05-21T01:51:49.861Z,93.85
2023-05-21T01:52:49.855Z,94.26
2023-05-21T01:53:49.863Z,94.60
2023-05-21T01:54:49.832Z,93.89
2023-05-21T01:55:49.818Z,93.18
2023-05-21T01:56:49.828Z,92.77
2023-05-21T01:57:49.804Z,93.48
2023-05-21T01:58:49.816Z,92.67
2023-05-21T01:59:49.779Z,92.05
2023-05-21T02:00:49.773Z,91.65
2023-05-21T02:01:49.858Z,91.55
2023-05-21T02:02:49.791Z,91.65
2023-05-21T02:03:49.809Z,92.05
2023-05-21T02:04:49.733Z,92.36
2023-05-21T02:05:49.728Z,91.49
2023-05-21T02:06:49.740Z,91.24
2023-05-21T02:07:49.741Z,90.42
2023-05-21T02:08:49.701Z,90.42
2023-05-21T02:09:49.693Z,91.08
2023-05-21T02:10:49.672Z,93.22
2023-05-21T02:11:49.658Z,92.87
2023-05-21T02:12:49.672Z,92.91
2023-05-21T02:13:49.643Z,93.02
2023-05-21T02:14:49.639Z,93.84
2023-05-21T02:15:49.647Z,94.55
2023-05-21T02:16:49.622Z,94.65
2023-05-21T02:17:49.673Z,94.24
2023-05-21T02:18:49.613Z,94.85
2023-05-21T02:19:49.577Z,94.04
2023-05-21T02:20:49.587Z,94.50
2023-05-21T02:21:49.574Z,94.50
2023-05-21T02:22:49.545Z,94.14
2023-05-21T02:23:49.549Z,93.52
2023-05-21T02:24:49.532Z,92.14
2023-05-21T02:25:49.524Z,91.63
2023-05-21T02:26:49.527Z,92.86
2023-05-21T02:27:49.514Z,92.45
2023-05-21T02:28:49.498Z,92.35
2023-05-21T02:29:49.492Z,92.55
2023-05-21T02:30:49.475Z,92.24
2023-05-21T02:31:49.478Z,92.35
2023-05-21T02:32:49.472Z,93.26
2023-05-21T02:33:49.455Z,92.65
2023-05-21T02:34:49.434Z,93.37
2023-05-21T02:35:49.442Z,92.96
2023-05-21T02:36:49.454Z,92.65
2023-05-21T02:37:49.406Z,93.16
2023-05-21T02:38:49.389Z,94.08
2023-05-21T02:39:49.385Z,95.72
2023-05-21T02:40:49.388Z,95.47
2023-05-21T02:41:49.361Z,95.26
2023-05-21T02:42:49.356Z,95.67
2023-05-21T02:43:49.344Z,96.08
2023-05-21T02:44:49.339Z,95.67
2023-05-21T02:45:49.361Z,93.77
2023-05-21T02:46:49.320Z,93.37
2023-05-21T02:47:49.323Z,93.31
2023-05-21T02:48:49.301Z,93.45
2023-05-21T02:49:49.299Z,93.51
2023-05-21T02:50:49.282Z,94.27
2023-05-21T02:51:49.254Z,93.86
2023-05-21T02:52:50.259Z,94.11
2023-05-21T02:53:49.237Z,94.01
2023-05-21T02:54:49.254Z,94.01
2023-05-21T02:55:49.218Z,93.80
2023-05-21T02:56:49.207Z,94.01
2023-05-21T02:57:49.196Z,94.52
2023-05-21T02:58:49.195Z,94.82
2023-05-21T02:59:49.197Z,93.91
2023-05-21T03:00:49.173Z,93.91
2023-05-21T03:01:49.243Z,94.42
2023-05-21T03:02:49.240Z,93.50
2023-05-21T03:03:49.200Z,92.99
2023-05-21T03:04:50.149Z,94.11
2023-05-21T03:05:49.136Z,94.01
2023-05-21T03:06:49.112Z,93.70
2023-05-21T03:07:49.120Z,93.09
2023-05-21T03:08:49.091Z,94.48
2023-05-21T03:09:49.110Z,93.40
2023-05-21T03:10:49.070Z,94.93
2023-05-21T03:11:49.071Z,94.98
2023-05-21T03:12:49.067Z,93.86
2023-05-21T03:13:49.092Z,94.93
2023-05-21T03:14:49.053Z,94.93
2023-05-21T03:15:49.030Z,94.42
2023-05-21T03:16:49.113Z,93.50
2023-05-21T03:17:49.050Z,92.58
2023-05-21T03:18:49.019Z,93.95
2023-05-21T03:19:49.004Z,94.06
2023-05-21T03:20:48.962Z,94.36
2023-05-21T03:21:49.973Z,94.67
2023-05-21T03:22:48.955Z,94.67
2023-05-21T03:23:48.963Z,94.67
2023-05-21T03:24:48.939Z,94.67
2023-05-21T03:25:48.940Z,94.67
2023-05-21T03:26:48.914Z,95.23
2023-05-21T03:27:48.914Z,94.73
2023-05-21T03:28:48.912Z,94.87
2023-05-21T03:29:48.882Z,94.36
2023-05-21T03:30:48.878Z,94.81
2023-05-21T03:31:48.951Z,94.71
2023-05-21T03:32:48.875Z,94.20
2023-05-21T03:33:48.865Z,93.89
2023-05-21T03:34:48.853Z,94.20
2023-05-21T03:35:48.833Z,93.89
2023-05-21T03:36:48.821Z,94.81
2023-05-21T03:37:48.813Z,94.81
2023-05-21T03:38:48.810Z,95.02
2023-05-21T03:39:48.794Z,94.71
2023-05-21T03:40:48.771Z,94.67
2023-05-21T03:41:48.778Z,94.71
2023-05-21T03:42:48.778Z,95.69
2023-05-21T03:43:48.746Z,94.81
2023-05-21T03:44:48.738Z,95.07
2023-05-21T03:45:48.757Z,94.81
2023-05-21T03:46:48.718Z,94.92
2023-05-21T03:47:48.751Z,94.06
2023-05-21T03:48:48.708Z,94.36
2023-05-21T03:49:48.685Z,93.74
2023-05-21T03:50:48.682Z,94.46
2023-05-21T03:51:48.681Z,95.89
2023-05-21T03:52:48.666Z,95.54
2023-05-21T03:53:48.641Z,95.44
2023-05-21T03:54:48.636Z,96.51
2023-05-21T03:55:48.624Z,96.15
2023-05-21T03:56:48.630Z,95.69
2023-05-21T03:57:48.614Z,94.97
2023-05-21T03:58:48.602Z,94.56
2023-05-21T03:59:48.589Z,95.32
2023-05-21T04:00:48.577Z,95.59
2023-05-21T04:01:48.578Z,95.94
2023-05-21T04:02:48.649Z,95.84
2023-05-21T04:03:48.773Z,95.07
2023-05-21T04:04:48.574Z,95.32
2023-05-21T04:05:48.540Z,95.53
2023-05-21T04:06:48.533Z,95.32
2023-05-21T04:07:48.508Z,95.22
2023-05-21T04:08:48.498Z,94.77
2023-05-21T04:09:48.488Z,94.15
2023-05-21T04:10:48.513Z,94.67
2023-05-21T04:11:48.490Z,94.56
2023-05-21T04:12:48.471Z,95.44
2023-05-21T04:13:48.454Z,95.85
2023-05-21T04:14:48.433Z,94.62
2023-05-21T04:15:48.456Z,95.80
2023-05-21T04:16:48.419Z,94.98
2023-05-21T04:17:48.471Z,94.27
2023-05-21T04:18:48.411Z,94.78
2023-05-21T04:19:48.402Z,95.19
2023-05-21T04:20:48.385Z,95.15
2023-05-21T04:21:48.368Z,95.50
2023-05-21T04:22:48.368Z,94.94
2023-05-21T04:23:48.363Z,94.64
2023-05-21T04:24:48.328Z,94.53
2023-05-21T04:25:48.332Z,94.33
2023-05-21T04:26:48.313Z,94.38
2023-05-21T04:27:48.302Z,94.70
2023-05-21T04:28:48.292Z,94.70
2023-05-21T04:29:50.656Z,94.59
2023-05-21T04:30:48.278Z,94.49
2023-05-21T04:31:48.349Z,95.67
2023-05-21T04:32:48.357Z,95.81
2023-05-21T04:33:48.248Z,95.36
2023-05-21T04:34:48.244Z,95.47
2023-05-21T04:35:48.215Z,95.47
2023-05-21T04:36:48.226Z,95.87
2023-05-21T04:37:48.196Z,95.06
2023-05-21T04:38:48.188Z,95.77
2023-05-21T04:39:48.198Z,95.67
2023-05-21T04:40:48.164Z,95.87
2023-05-21T04:41:48.161Z,95.26
2023-05-21T04:42:48.147Z,95.97
2023-05-21T04:43:48.129Z,96.38
2023-05-21T04:44:48.146Z,95.77
2023-05-21T04:45:48.129Z,95.92
2023-05-21T04:46:48.133Z,96.73
2023-05-21T04:47:48.161Z,96.33
2023-05-21T04:48:48.102Z,96.84
2023-05-21T04:49:48.105Z,96.48
2023-05-21T04:50:48.070Z,96.28
2023-05-21T04:51:48.063Z,96.48
2023-05-21T04:52:48.043Z,96.44
2023-05-21T04:53:49.054Z,96.75
2023-05-21T04:54:48.026Z,96.64
2023-05-21T04:55:48.071Z,96.23
2023-05-21T04:56:48.012Z,96.44
2023-05-21T04:57:48.003Z,96.54
2023-05-21T04:58:48.069Z,96.91
2023-05-21T04:59:47.983Z,96.19
2023-05-21T05:00:47.991Z,96.04
2023-05-21T05:01:47.959Z,95.78
2023-05-21T05:02:48.038Z,96.55
2023-05-21T05:03:48.000Z,97.06
2023-05-21T05:04:47.938Z,97.63
2023-05-21T05:05:47.938Z,97.48
2023-05-21T05:06:47.914Z,96.97
2023-05-21T05:07:47.922Z,97.03
2023-05-21T05:08:47.901Z,96.01
2023-05-21T05:09:48.888Z,96.47
2023-05-21T05:10:47.887Z,95.46
2023-05-21T05:11:47.863Z,95.01
2023-05-21T05:12:47.878Z,95.62
2023-05-21T05:13:47.851Z,94.70
2023-05-21T05:14:47.850Z,94.09
2023-05-21T05:15:49.632Z,93.95
2023-05-21T05:16:48.874Z,93.95
2023-05-21T05:17:47.904Z,93.33
2023-05-21T05:18:47.825Z,93.60
2023-05-21T05:19:47.787Z,93.19
2023-05-21T05:20:47.778Z,92.79
2023-05-21T05:21:47.775Z,93.09
2023-05-21T05:22:47.770Z,92.64
2023-05-21T05:23:47.754Z,92.13
2023-05-21T05:24:47.739Z,92.03
2023-05-21T05:25:47.735Z,92.03
2023-05-21T05:26:47.759Z,91.48
2023-05-21T05:27:47.727Z,92.24
2023-05-21T05:28:47.699Z,92.09
2023-05-21T05:29:47.699Z,91.22
2023-05-21T05:30:47.731Z,90.88
2023-05-21T05:31:47.683Z,90.47
2023-05-21T05:32:47.684Z,90.53
2023-05-21T05:33:47.649Z,90.22
2023-05-21T05:34:47.645Z,89.77
2023-05-21T05:35:47.628Z,89.81
2023-05-21T05:36:47.635Z,89.37
2023-05-21T05:37:47.615Z,89.47
2023-05-21T05:38:47.608Z,89.47
2023-05-21T05:39:47.588Z,88.35
2023-05-21T05:40:47.584Z,88.66
2023-05-21T05:41:47.590Z,88.21
2023-05-21T05:42:47.670Z,88.21
2023-05-21T05:43:47.566Z,88.21
2023-05-21T05:44:47.546Z,88.31
2023-05-21T05:45:47.596Z,88.27
2023-05-21T05:46:47.651Z,87.46
2023-05-21T05:47:47.560Z,88.48
2023-05-21T05:48:47.498Z,86.96
2023-05-21T05:49:47.493Z,88.07
2023-05-21T05:50:47.496Z,87.02
2023-05-21T05:51:47.474Z,87.56
2023-05-21T05:52:47.452Z,87.56
2023-05-21T05:53:47.451Z,87.32
2023-05-21T05:54:47.456Z,87.12
2023-05-21T05:55:47.437Z,86.31
2023-05-21T05:56:47.428Z,86.21
2023-05-21T05:57:47.420Z,86.00
2023-05-21T05:58:47.403Z,85.76
2023-05-21T05:59:47.398Z,85.46
2023-05-21T06:00:47.375Z,85.46
2023-05-21T06:01:47.370Z,85.66
2023-05-21T06:02:47.416Z,85.46
2023-05-21T06:03:47.506Z,85.56
2023-05-21T06:04:47.366Z,86.22
2023-05-21T06:05:47.369Z,86.02
2023-05-21T06:06:47.322Z,85.02
2023-05-21T06:07:47.323Z,84.87
2023-05-21T06:08:47.306Z,84.67
2023-05-21T06:09:47.316Z,84.61
2023-05-21T06:10:47.285Z,84.61
2023-05-21T06:11:47.280Z,84.51
2023-05-21T06:12:47.266Z,84.31
2023-05-21T06:13:47.270Z,84.57
2023-05-21T06:14:47.263Z,84.97
2023-05-21T06:15:47.297Z,83.96
2023-05-21T06:16:47.223Z,84.47
2023-05-21T06:17:47.266Z,83.86
2023-05-21T06:18:47.247Z,83.46
2023-05-21T06:19:47.192Z,84.06
2023-05-21T06:20:47.198Z,83.76
2023-05-21T06:21:47.185Z,83.52
2023-05-21T06:22:47.162Z,83.15
2023-05-21T06:23:47.162Z,83.92
2023-05-21T06:24:47.151Z,83.72
2023-05-21T06:25:47.137Z,83.32
2023-05-21T06:26:47.120Z,83.22
2023-05-21T06:27:47.117Z,83.62
2023-05-21T06:28:47.111Z,83.01
2023-05-21T06:29:47.085Z,82.61
2023-05-21T06:30:47.090Z,83.22
2023-05-21T06:31:47.076Z,83.72
2023-05-21T06:32:47.131Z,83.22
2023-05-21T06:33:47.137Z,83.22
2023-05-21T06:34:47.052Z,82.81
2023-05-21T06:35:47.028Z,82.81
2023-05-21T06:36:47.032Z,82.98
2023-05-21T06:37:47.023Z,83.12
2023-05-21T06:38:46.995Z,82.57
2023-05-21T06:39:47.006Z,83.01
2023-05-21T06:40:46.983Z,82.98
2023-05-21T06:41:47.204Z,82.87
2023-05-21T06:42:46.975Z,83.58
2023-05-21T06:43:46.950Z,82.84
2023-05-21T06:44:46.949Z,82.13
2023-05-21T06:45:46.948Z,81.42
2023-05-21T06:46:46.937Z,81.93
2023-05-21T06:47:46.991Z,81.42
2023-05-21T06:48:46.909Z,81.38
2023-05-21T06:49:46.895Z,82.09
2023-05-21T06:50:46.888Z,80.98
2023-05-21T06:51:46.884Z,81.18
2023-05-21T06:52:46.860Z,80.78
2023-05-21T06:53:46.853Z,80.78
2023-05-21T06:54:46.851Z,80.78
2023-05-21T06:55:46.861Z,80.78
2023-05-21T06:56:46.867Z,80.98
2023-05-21T06:57:46.830Z,80.74
2023-05-21T06:58:46.806Z,80.98
2023-05-21T06:59:46.794Z,80.94
2023-05-21T07:00:46.846Z,80.54
2023-05-21T07:01:47.925Z,80.70
2023-05-21T07:02:47.035Z,80.60
2023-05-21T07:03:46.795Z,79.39
2023-05-21T07:04:46.762Z,79.39
2023-05-21T07:05:46.745Z,79.19
2023-05-21T07:06:46.915Z,79.56
2023-05-21T07:07:46.715Z,79.46
2023-05-21T07:08:46.706Z,79.56
2023-05-21T07:09:46.692Z,79.02
2023-05-21T07:10:46.704Z,77.91
2023-05-21T07:11:46.674Z,76.90
2023-05-21T07:12:46.669Z,76.87
2023-05-21T07:13:46.656Z,77.27
2023-05-21T07:14:46.655Z,76.06
2023-05-21T07:15:46.654Z,76.87
2023-05-21T07:16:46.695Z,75.92
2023-05-21T07:17:46.669Z,76.36
2023-05-21T07:18:46.626Z,75.92
2023-05-21T07:19:46.613Z,77.09
2023-05-21T07:20:46.603Z,74.98
2023-05-21T07:21:46.574Z,75.29
2023-05-21T07:22:46.567Z,75.35
2023-05-21T07:23:46.566Z,75.75
2023-05-21T07:24:46.560Z,74.95
2023-05-21T07:25:46.548Z,75.65
2023-05-21T07:26:46.528Z,75.01
2023-05-21T07:27:46.523Z,74.04
2023-05-21T07:28:46.527Z,73.84
2023-05-21T07:29:46.514Z,74.08
2023-05-21T07:30:46.508Z,74.58
2023-05-21T07:31:46.479Z,74.38
2023-05-21T07:32:46.514Z,74.35
2023-05-21T07:33:46.455Z,74.44
2023-05-21T07:34:46.467Z,73.94
2023-05-21T07:35:46.441Z,74.41
2023-05-21T07:36:46.434Z,74.31
2023-05-21T07:37:46.456Z,74.01
2023-05-21T07:38:46.415Z,74.27
2023-05-21T07:39:46.408Z,73.00
2023-05-21T07:40:46.393Z,74.31
2023-05-21T07:41:46.385Z,74.18
2023-05-21T07:42:46.377Z,72.87
2023-05-21T07:43:46.367Z,72.83
2023-05-21T07:44:46.361Z,72.94
2023-05-21T07:45:46.345Z,73.90
2023-05-21T07:46:46.432Z,73.10
2023-05-21T07:47:46.368Z,71.90
2023-05-21T07:48:46.315Z,71.70
2023-05-21T07:49:46.353Z,71.53
2023-05-21T07:50:46.309Z,72.90
2023-05-21T07:51:46.290Z,73.30
2023-05-21T07:52:46.358Z,71.56
2023-05-21T07:53:46.268Z,71.09
2023-05-21T07:54:46.269Z,71.26
2023-05-21T07:55:46.256Z,71.26
2023-05-21T07:56:46.250Z,69.73
2023-05-21T07:57:46.230Z,70.43
2023-05-21T07:58:46.240Z,69.93
2023-05-21T07:59:46.217Z,68.82
2023-05-21T08:00:46.199Z,69.82
2023-05-21T08:01:46.195Z,70.03
2023-05-21T08:02:46.237Z,69.82
2023-05-21T08:03:46.294Z,69.32
2023-05-21T08:04:46.194Z,69.66
2023-05-21T08:05:46.156Z,70.96
2023-05-21T08:06:46.150Z,70.32
2023-05-21T08:07:47.139Z,70.93
2023-05-21T08:08:46.136Z,71.09
2023-05-21T08:09:46.126Z,69.59
2023-05-21T08:10:46.101Z,69.46
2023-05-21T08:11:46.097Z,69.06
2023-05-21T08:12:46.098Z,67.05
2023-05-21T08:13:46.113Z,68.36
2023-05-21T08:14:46.062Z,69.43
2023-05-21T08:15:46.060Z,67.43
2023-05-21T08:16:46.174Z,68.49
2023-05-21T08:17:46.080Z,67.09
2023-05-21T08:18:46.036Z,68.46
2023-05-21T08:19:46.015Z,67.13
2023-05-21T08:20:46.008Z,65.83
2023-05-21T08:21:46.023Z,66.30
2023-05-21T08:22:46.013Z,65.97
2023-05-21T08:23:45.975Z,64.47
2023-05-21T08:24:45.977Z,66.36
2023-05-21T08:25:45.975Z,65.94
2023-05-21T08:26:45.981Z,66.24
2023-05-21T08:27:45.958Z,65.20
2023-05-21T08:28:45.931Z,66.07
2023-05-21T08:29:45.924Z,63.38
2023-05-21T08:30:45.920Z,64.01
2023-05-21T08:31:46.003Z,63.41
2023-05-21T08:32:45.924Z,64.11
2023-05-21T08:33:45.888Z,64.11
2023-05-21T08:34:45.873Z,64.21
2023-05-21T08:35:45.877Z,62.98
2023-05-21T08:36:45.864Z,63.31
2023-05-21T08:37:45.851Z,65.23
2023-05-21T08:38:45.944Z,63.71
2023-05-21T08:39:45.823Z,63.21
2023-05-21T08:40:45.835Z,64.21
2023-05-21T08:41:45.810Z,64.81
2023-05-21T08:42:45.801Z,63.81
2023-05-21T08:43:47.385Z,65.37
2023-05-21T08:44:45.847Z,62.18
2023-05-21T08:45:45.873Z,64.45
2023-05-21T08:46:45.823Z,64.51
2023-05-21T08:47:45.809Z,63.36
2023-05-21T08:48:45.795Z,61.77
2023-05-21T08:49:45.781Z,62.07
2023-05-21T08:50:45.775Z,61.77
2023-05-21T08:51:45.753Z,60.84
2023-05-21T08:52:45.791Z,60.87
2023-05-21T08:53:45.762Z,61.14
2023-05-21T08:54:45.789Z,60.64
2023-05-21T08:55:45.777Z,60.84
2023-05-21T08:56:45.733Z,61.37
2023-05-21T08:57:45.766Z,60.40
2023-05-21T08:58:45.744Z,60.57
2023-05-21T08:59:45.690Z,61.90
2023-05-21T09:00:45.664Z,61.77
2023-05-21T09:01:45.753Z,62.66
2023-05-21T09:02:45.700Z,62.23
2023-05-21T09:03:46.689Z,61.01
2023-05-21T09:04:45.738Z,61.11
2023-05-21T09:05:45.650Z,60.91
2023-05-21T09:06:45.628Z,60.56
2023-05-21T09:07:45.629Z,60.43
2023-05-21T09:08:45.603Z,58.54
2023-05-21T09:09:45.628Z,61.19
2023-05-21T09:10:45.593Z,58.61
2023-05-21T09:11:45.591Z,58.61
2023-05-21T09:12:45.552Z,57.53
2023-05-21T09:13:45.609Z,59.51
2023-05-21T09:14:45.641Z,58.98
2023-05-21T09:15:45.526Z,58.98
2023-05-21T09:16:45.600Z,59.08
2023-05-21T09:17:45.620Z,57.29
2023-05-21T09:18:45.587Z,58.69
2023-05-21T09:19:45.530Z,56.51
2023-05-21T09:20:45.471Z,57.67
2023-05-21T09:21:45.474Z,57.07
2023-05-21T09:22:45.499Z,57.10
2023-05-21T09:23:45.522Z,57.82
2023-05-21T09:24:45.472Z,58.02
2023-05-21T09:25:45.459Z,57.50
2023-05-21T09:26:45.567Z,57.69
2023-05-21T09:27:45.533Z,58.69
2023-05-21T09:28:45.465Z,57.00
2023-05-21T09:29:45.442Z,57.17
2023-05-21T09:30:45.472Z,56.87
2023-05-21T09:31:45.612Z,57.76
2023-05-21T09:32:45.425Z,56.05
2023-05-21T09:33:45.411Z,56.08
2023-05-21T09:34:45.385Z,54.99
2023-05-21T09:35:45.360Z,58.73
2023-05-21T09:36:45.369Z,58.73
2023-05-21T09:37:45.352Z,58.57
2023-05-21T09:38:45.351Z,55.60
2023-05-21T09:39:45.300Z,55.18
2023-05-21T09:40:45.332Z,55.75
2023-05-21T09:41:45.309Z,54.49
2023-05-21T09:42:45.317Z,55.22
2023-05-21T09:43:45.302Z,54.73
2023-05-21T09:44:45.305Z,55.20
2023-05-21T09:45:45.316Z,55.20
2023-05-21T09:46:45.317Z,55.87
2023-05-21T09:47:45.268Z,54.75
2023-05-21T09:48:45.240Z,53.44
2023-05-21T09:49:45.214Z,53.02
2023-05-21T09:50:45.237Z,49.77
2023-05-21T09:51:45.190Z,50.29
2023-05-21T09:52:45.165Z,51.59
2023-05-21T09:53:45.159Z,51.25
2023-05-21T09:54:45.173Z,53.55
2023-05-21T09:55:45.168Z,52.04
2023-05-21T09:56:45.149Z,53.39
2023-05-21T09:57:45.133Z,52.41
2023-05-21T09:58:45.140Z,51.94
2023-05-21T09:59:45.103Z,53.64
2023-05-21T10:00:45.226Z,53.08
2023-05-21T10:01:45.231Z,50.31
2023-05-21T10:02:45.198Z,50.51
2023-05-21T10:03:45.166Z,53.40
2023-05-21T10:04:45.244Z,54.76
2023-05-21T10:05:45.146Z,51.77
2023-05-21T10:06:45.029Z,52.95
2023-05-21T10:07:45.046Z,52.17
2023-05-21T10:08:45.039Z,48.90
2023-05-21T10:09:45.021Z,50.71
2023-05-21T10:10:45.044Z,53.05
2023-05-21T10:11:45.042Z,50.76
2023-05-21T10:12:44.981Z,50.56
2023-05-21T10:13:44.980Z,51.82
2023-05-21T10:14:45.020Z,50.46
2023-05-21T10:15:45.044Z,52.31
2023-05-21T10:16:45.042Z,53.81
2023-05-21T10:17:45.001Z,52.46
2023-05-21T10:18:44.976Z,53.55
2023-05-21T10:19:44.974Z,54.21
2023-05-21T10:20:44.942Z,52.80
2023-05-21T10:21:47.270Z,50.12
2023-05-21T10:22:45.896Z,50.73
2023-05-21T10:23:48.611Z,51.03
2023-05-21T10:24:45.626Z,51.59
2023-05-21T10:25:44.888Z,51.64
2023-05-21T10:26:44.879Z,52.23
2023-05-21T10:27:44.919Z,49.85
2023-05-21T10:28:44.910Z,50.81
2023-05-21T10:29:44.932Z,52.16
2023-05-21T10:30:44.886Z,49.62
2023-05-21T10:31:44.856Z,51.47
2023-05-21T10:32:44.990Z,48.30
2023-05-21T10:33:44.817Z,47.22
2023-05-21T10:34:44.803Z,48.69
2023-05-21T10:35:44.829Z,48.69
2023-05-21T10:36:44.797Z,48.99
2023-05-21T10:37:44.795Z,49.97
2023-05-21T10:38:44.805Z,48.27
2023-05-21T10:39:44.775Z,49.28
2023-05-21T10:40:44.747Z,47.34
2023-05-21T10:41:46.646Z,48.32
2023-05-21T10:42:44.724Z,48.35
2023-05-21T10:43:44.748Z,48.37
2023-05-21T10:44:44.725Z,48.37
2023-05-21T10:45:44.714Z,49.73
2023-05-21T10:46:44.771Z,47.36
2023-05-21T10:47:44.698Z,49.40
2023-05-21T10:48:44.676Z,47.31
2023-05-21T10:49:44.661Z,47.88
2023-05-21T10:50:44.621Z,50.34
2023-05-21T10:51:44.672Z,47.68
2023-05-21T10:52:44.714Z,48.19
2023-05-21T10:53:44.660Z,48.27
2023-05-21T10:54:44.608Z,50.04
2023-05-21T10:55:44.618Z,50.21
2023-05-21T10:56:44.600Z,48.64
2023-05-21T10:57:44.605Z,46.59
2023-05-21T10:58:44.587Z,48.04
2023-05-21T10:59:44.580Z,48.86
2023-05-21T11:00:44.594Z,49.77
2023-05-21T11:01:44.655Z,50.56
2023-05-21T11:02:44.643Z,51.92
2023-05-21T11:03:44.614Z,50.90
2023-05-21T11:04:44.537Z,51.07
2023-05-21T11:05:44.531Z,50.95
2023-05-21T11:06:44.535Z,49.73
2023-05-21T11:07:44.513Z,48.52
2023-05-21T11:08:45.596Z,47.73
2023-05-21T11:09:44.454Z,48.54
2023-05-21T11:10:44.515Z,50.14
2023-05-21T11:11:44.437Z,50.14
2023-05-21T11:12:44.416Z,50.61
2023-05-21T11:13:44.392Z,50.88
2023-05-21T11:14:44.396Z,48.89
2023-05-21T11:15:44.379Z,47.63
2023-05-21T11:16:44.408Z,48.98
2023-05-21T11:17:44.424Z,50.95
2023-05-21T11:18:44.500Z,49.30
2023-05-21T11:19:44.431Z,47.80
2023-05-21T11:20:44.352Z,49.06
2023-05-21T11:21:44.359Z,49.43
2023-05-21T11:22:44.340Z,48.30
2023-05-21T11:23:44.322Z,46.26
2023-05-21T11:24:44.316Z,47.42
2023-05-21T11:25:44.318Z,47.25
2023-05-21T11:26:44.305Z,45.40
2023-05-21T11:27:44.307Z,48.37
2023-05-21T11:28:44.266Z,47.86
2023-05-21T11:29:44.307Z,47.09
2023-05-21T11:30:44.520Z,46.92
2023-05-21T11:31:44.290Z,48.42
2023-05-21T11:32:44.271Z,48.83
2023-05-21T11:33:44.234Z,49.80
2023-05-21T11:34:44.199Z,48.27
2023-05-21T11:35:44.203Z,48.37
2023-05-21T11:36:44.185Z,49.67
2023-05-21T11:37:44.175Z,51.77
2023-05-21T11:38:44.158Z,51.18
2023-05-21T11:39:44.169Z,49.28
2023-05-21T11:40:44.154Z,49.55
2023-05-21T11:41:44.147Z,51.40
2023-05-21T11:42:44.155Z,49.01
2023-05-21T11:43:45.131Z,48.42
2023-05-21T11:44:44.130Z,48.39
2023-05-21T11:45:44.107Z,48.59
2023-05-21T11:46:44.168Z,49.50
2023-05-21T11:47:44.165Z,49.11
2023-05-21T11:48:44.083Z,48.44
2023-05-21T11:49:44.074Z,48.83
2023-05-21T11:50:44.053Z,48.69
2023-05-21T11:51:44.059Z,52.63
2023-05-21T11:52:44.046Z,50.24
2023-05-21T11:53:44.419Z,50.56
2023-05-21T11:54:45.035Z,50.34
2023-05-21T11:55:44.013Z,50.24
2023-05-21T11:56:44.036Z,52.31
2023-05-21T11:57:43.998Z,52.21
2023-05-21T11:58:44.013Z,49.43
2023-05-21T11:59:43.997Z,50.14
2023-05-21T12:00:43.964Z,50.21
2023-05-21T12:01:43.961Z,50.21
2023-05-21T12:02:44.002Z,49.13
2023-05-21T12:03:44.099Z,48.25
2023-05-21T12:04:43.939Z,49.75
2023-05-21T12:05:43.953Z,50.26
2023-05-21T12:06:43.920Z,50.88
2023-05-21T12:07:43.901Z,52.06
2023-05-21T12:08:43.924Z,52.04
2023-05-21T12:09:43.894Z,50.76
2023-05-21T12:10:46.132Z,51.74
2023-05-21T12:11:44.885Z,52.14
2023-05-21T12:12:54.647Z,51.07
2023-05-21T12:13:48.725Z,51.89
2023-05-21T12:14:43.858Z,52.78
2023-05-21T12:15:43.835Z,52.93
2023-05-21T12:16:43.861Z,53.92
2023-05-21T12:17:43.838Z,52.61
2023-05-21T12:18:43.850Z,52.19
2023-05-21T12:19:43.808Z,52.85
2023-05-21T12:20:43.788Z,50.29
2023-05-21T12:21:43.811Z,51.32
2023-05-21T12:22:43.787Z,51.99
2023-05-21T12:23:43.756Z,50.42
2023-05-21T12:24:43.775Z,49.01
2023-05-21T12:25:43.729Z,49.90
2023-05-21T12:26:43.747Z,50.49
2023-05-21T12:27:43.733Z,50.49
2023-05-21T12:28:43.754Z,51.37
2023-05-21T12:29:43.720Z,49.48
2023-05-21T12:30:43.760Z,50.29
2023-05-21T12:31:43.820Z,50.29
2023-05-21T12:32:43.778Z,50.02
2023-05-21T12:33:43.707Z,50.34
2023-05-21T12:34:43.701Z,52.33
2023-05-21T12:35:43.756Z,52.90
2023-05-21T12:36:43.693Z,51.81
2023-05-21T12:37:43.703Z,50.44
2023-05-21T12:38:43.639Z,50.93
2023-05-21T12:39:43.634Z,51.84
2023-05-21T12:40:43.648Z,51.54
2023-05-21T12:41:43.650Z,51.67
2023-05-21T12:42:43.609Z,51.87
2023-05-21T12:43:43.607Z,54.03
2023-05-21T12:44:43.586Z,52.33
2023-05-21T12:45:43.670Z,52.04
2023-05-21T12:46:43.618Z,52.09
2023-05-21T12:47:43.592Z,53.89
2023-05-21T12:48:43.538Z,53.17
2023-05-21T12:49:43.539Z,52.41
2023-05-21T12:50:43.548Z,52.21
2023-05-21T12:51:43.542Z,52.91
2023-05-21T12:52:43.527Z,51.72